Time;durP1;ratioP1;P1;durP2;ratioP2;P2;SDS_P1;SDS_P2;PMS_P1;PMS_P2;Temp;Humidity;BMP_temperature;BMP_pressure;BME280_temperature;BME280_humidity;BME280_pressure;Samples;Min_cycle;Max_cycle;Signal;HPM_P1;HPM_P2
2022/12/10 00:01:35;;;;;;;77.38;39.75;;;27.40;99.90;;;;;;5029842;28;20029;-70
2022/12/10 00:04:02;;;;;;;55.03;32.90;;;27.40;99.90;;;;;;5023916;28;20072;-67
2022/12/10 00:06:31;;;;;;;32.95;21.33;;;27.40;99.90;;;;;;5015246;28;20122;-70
2022/12/10 00:08:59;;;;;;;54.13;36.53;;;27.40;99.90;;;;;;5015137;28;20067;-68
2022/12/10 00:11:26;;;;;;;145.65;127.68;;;27.50;99.90;;;;;;5014650;28;20515;-72
2022/12/10 00:13:53;;;;;;;123.25;103.88;;;27.40;99.90;;;;;;5015099;28;20022;-71
2022/12/10 00:16:22;;;;;;;70.15;58.85;;;27.50;99.90;;;;;;5014936;28;20042;-69
2022/12/10 00:18:50;;;;;;;70.47;56.17;;;27.40;99.90;;;;;;5014892;28;20395;-69
2022/12/10 00:21:20;;;;;;;42.42;34.03;;;27.40;99.90;;;;;;5015099;28;20028;-67
2022/12/10 00:23:47;;;;;;;43.30;35.78;;;27.40;99.90;;;;;;5015016;28;20034;-68
2022/12/10 00:26:20;;;;;;;40.70;28.67;;;27.50;99.90;;;;;;5021009;28;20509;-67
2022/12/10 00:28:46;;;;;;;;;;;27.40;99.90;;;;;;5051742;28;20401;-68
2022/12/10 00:31:15;;;;;;;39.75;28.00;;;27.40;99.90;;;;;;5040785;28;19905;-67
2022/12/10 00:33:43;;;;;;;37.33;29.20;;;27.40;99.90;;;;;;5054322;28;20052;-71
2022/12/10 00:36:14;;;;;;;35.72;29.17;;;27.50;99.90;;;;;;5040214;28;20083;-68
2022/12/10 00:38:41;;;;;;;28.45;22.20;;;27.50;99.90;;;;;;5052527;28;20025;-69
2022/12/10 00:41:09;;;;;;;40.65;28.17;;;27.50;99.90;;;;;;5048623;28;20055;-69
2022/12/10 00:43:35;;;;;;;56.17;41.40;;;27.50;99.90;;;;;;5034209;28;20101;-69
2022/12/10 00:46:02;;;;;;;27.88;20.98;;;27.60;99.90;;;;;;5034213;28;20028;-63
2022/12/10 00:48:29;;;;;;;25.65;16.27;;;27.50;99.90;;;;;;5050684;28;20504;-62
2022/12/10 00:51:00;;;;;;;29.38;22.55;;;27.50;99.90;;;;;;5027234;28;20457;-66
2022/12/10 00:53:28;;;;;;;43.58;30.48;;;27.50;99.90;;;;;;5045773;28;20026;-68
2022/12/10 00:55:55;;;;;;;25.05;16.75;;;27.60;99.90;;;;;;5033841;28;20028;-66
2022/12/10 00:58:23;;;;;;;34.42;18.90;;;27.60;99.90;;;;;;5049205;28;20108;-67
2022/12/10 01:00:49;;;;;;;30.98;21.35;;;27.60;99.90;;;;;;5053921;28;20107;-65
2022/12/10 01:03:16;;;;;;;30.75;22.98;;;27.70;99.90;;;;;;5049943;28;20030;-66
2022/12/10 01:05:42;;;;;;;33.45;23.40;;;27.70;99.90;;;;;;5041301;28;20029;-67
2022/12/10 01:08:09;;;;;;;35.80;24.35;;;27.70;99.90;;;;;;5053720;28;20033;-67
2022/12/10 01:10:35;;;;;;;46.03;26.73;;;27.90;99.90;;;;;;5053876;28;20354;-69
2022/12/10 01:13:03;;;;;;;35.85;26.38;;;27.90;99.90;;;;;;5051176;28;20100;-69
2022/12/10 01:15:29;;;;;;;43.80;31.77;;;27.90;99.90;;;;;;5033471;28;20116;-69
2022/12/10 01:17:56;;;;;;;58.80;27.58;;;27.90;99.90;;;;;;5032938;28;20462;-69
2022/12/10 01:20:22;;;;;;;39.42;27.50;;;27.90;99.90;;;;;;5031054;28;20025;-68
2022/12/10 01:22:48;;;;;;;30.83;21.02;;;27.90;99.90;;;;;;5033438;28;20025;-68
2022/12/10 01:25:15;;;;;;;30.90;22.05;;;28.00;99.90;;;;;;5036865;28;20027;-69
2022/12/10 01:27:41;;;;;;;30.30;20.30;;;28.00;99.90;;;;;;5045940;28;20781;-67
2022/12/10 01:30:09;;;;;;;41.33;27.13;;;28.00;99.90;;;;;;5027160;28;20032;-67
2022/12/10 01:32:35;;;;;;;38.45;24.63;;;28.00;99.90;;;;;;5032405;28;20550;-69
2022/12/10 01:35:02;;;;;;;29.63;22.98;;;28.10;99.90;;;;;;5033332;28;20025;-69
2022/12/10 01:37:28;;;;;;;50.83;31.27;;;28.10;99.90;;;;;;5033090;28;20029;-68
2022/12/10 01:39:55;;;;;;;30.70;22.40;;;28.10;99.90;;;;;;5033087;28;20025;-68
2022/12/10 01:42:21;;;;;;;166.65;116.55;;;28.10;99.90;;;;;;5032067;28;20029;-68
2022/12/10 01:44:48;;;;;;;162.90;112.85;;;28.20;99.90;;;;;;5031764;28;20479;-68
2022/12/10 01:47:14;;;;;;;67.00;45.35;;;28.30;99.90;;;;;;5029126;28;20080;-69
2022/12/10 01:49:41;;;;;;;30.58;22.15;;;28.30;99.90;;;;;;5033291;28;20033;-68
2022/12/10 01:52:11;;;;;;;33.55;21.10;;;28.20;99.90;;;;;;5033606;28;20022;-67
2022/12/10 01:54:42;;;;;;;89.60;52.75;;;28.30;99.90;;;;;;5054000;23;20061;-69
2022/12/10 01:57:28;;;;;;;69.47;48.60;;;28.30;99.90;;;;;;5038708;28;20030;-67
2022/12/10 01:59:59;;;;;;;288.90;204.52;;;28.30;99.90;;;;;;5032966;28;20026;-67
2022/12/10 02:02:35;;;;;;;131.48;93.10;;;28.40;99.90;;;;;;5031415;28;20360;-67
2022/12/10 02:05:11;;;;;;;132.45;90.65;;;28.50;99.90;;;;;;5031976;28;20029;-67
2022/12/10 02:07:57;;;;;;;65.20;43.40;;;28.50;99.90;;;;;;5032738;28;20036;-67
2022/12/10 02:10:34;;;;;;;38.17;27.48;;;28.50;99.90;;;;;;5023889;28;20048;-66
2022/12/10 02:13:15;;;;;;;35.13;26.98;;;28.50;99.90;;;;;;5021723;28;20028;-67
2022/12/10 02:15:52;;;;;;;39.55;30.00;;;28.60;99.90;;;;;;5003810;28;20033;-68
2022/12/10 02:18:27;;;;;;;43.60;31.52;;;28.60;99.90;;;;;;5021081;28;20026;-67
2022/12/10 02:20:58;;;;;;;48.75;33.08;;;28.60;99.90;;;;;;5020968;28;20092;-66
2022/12/10 02:23:30;;;;;;;47.43;31.67;;;28.70;99.90;;;;;;5024956;28;20541;-67
2022/12/10 02:26:30;;;;;;;47.58;32.47;;;28.70;99.90;;;;;;5025656;28;20255;-68
2022/12/10 02:29:17;;;;;;;63.28;42.97;;;28.70;99.90;;;;;;5024725;28;20475;-67
2022/12/10 02:32:07;;;;;;;69.03;48.88;;;28.70;99.90;;;;;;5026349;28;20029;-67
2022/12/10 02:34:38;;;;;;;59.90;44.55;;;28.70;99.90;;;;;;5016726;28;20034;-66
2022/12/10 02:37:12;;;;;;;61.40;40.95;;;28.70;99.90;;;;;;5021328;28;20062;-68
2022/12/10 02:39:45;;;;;;;83.95;53.33;;;28.70;99.90;;;;;;5029232;28;20045;-67
2022/12/10 02:42:14;;;;;;;189.52;125.40;;;28.80;99.90;;;;;;5026535;28;20017;-66
2022/12/10 02:44:43;;;;;;;287.98;201.40;;;28.80;99.90;;;;;;5025544;28;20033;-67
2022/12/10 02:47:12;;;;;;;182.77;127.35;;;28.80;99.90;;;;;;5022371;28;20489;-67
2022/12/10 02:49:41;;;;;;;64.22;48.95;;;28.90;99.90;;;;;;5024103;28;20053;-67
2022/12/10 02:52:12;;;;;;;274.08;236.05;;;28.90;99.90;;;;;;5016875;28;20406;-67
2022/12/10 02:54:43;;;;;;;334.63;222.70;;;28.90;99.90;;;;;;5022882;28;20099;-67
2022/12/10 02:57:19;;;;;;;184.47;116.73;;;29.00;99.90;;;;;;5031339;28;20060;-67
2022/12/10 03:00:18;;;;;;;100.43;69.25;;;29.10;99.90;;;;;;5026012;28;20621;-68
2022/12/10 03:02:57;;;;;;;67.80;47.10;;;29.10;99.90;;;;;;5034083;28;20091;-68
2022/12/10 03:05:33;;;;;;;56.38;39.05;;;29.10;99.90;;;;;;5026365;28;20032;-67
2022/12/10 03:08:18;;;;;;;59.90;41.03;;;29.20;99.90;;;;;;5029375;28;20048;-67
2022/12/10 03:10:59;;;;;;;87.18;54.25;;;29.20;99.90;;;;;;5023686;28;20058;-67
2022/12/10 03:13:34;;;;;;;61.63;41.08;;;29.30;99.90;;;;;;5028739;28;20097;-66
2022/12/10 03:16:02;;;;;;;50.38;35.22;;;29.30;99.90;;;;;;5027547;28;20030;-66
2022/12/10 03:18:32;;;;;;;51.03;34.10;;;29.20;99.90;;;;;;5027225;28;20025;-66
2022/12/10 03:21:03;;;;;;;56.08;40.30;;;29.30;99.90;;;;;;5026550;28;20392;-67
2022/12/10 03:23:32;;;;;;;56.47;35.72;;;29.30;99.90;;;;;;5023782;28;20079;-67
2022/12/10 03:26:00;;;;;;;67.60;44.95;;;29.30;99.90;;;;;;5024005;28;20042;-66
2022/12/10 03:28:26;;;;;;;60.47;41.70;;;29.30;99.90;;;;;;5026360;28;20030;-67
2022/12/10 03:30:55;;;;;;;56.90;36.67;;;29.40;99.90;;;;;;5022556;28;20089;-66
2022/12/10 03:33:22;;;;;;;75.43;43.40;;;29.30;99.90;;;;;;5027978;28;20060;-66
2022/12/10 03:35:50;;;;;;;46.10;33.75;;;29.30;99.90;;;;;;5024321;28;20014;-67
2022/12/10 03:38:17;;;;;;;48.50;33.83;;;29.30;99.90;;;;;;5022309;28;20382;-67
2022/12/10 03:40:43;;;;;;;64.32;39.67;;;29.40;99.90;;;;;;5022211;28;20450;-67
2022/12/10 03:43:13;;;;;;;47.45;32.88;;;29.40;99.90;;;;;;5026181;28;20065;-66
2022/12/10 03:45:40;;;;;;;47.50;31.50;;;29.40;99.90;;;;;;5023501;28;20539;-64
2022/12/10 03:48:07;;;;;;;58.80;35.58;;;29.50;99.90;;;;;;5023807;28;20071;-66
2022/12/10 03:50:34;;;;;;;49.65;34.40;;;29.50;99.90;;;;;;5024875;28;20076;-68
2022/12/10 03:53:00;;;;;;;55.47;33.22;;;29.50;99.90;;;;;;5020187;28;20105;-68
2022/12/10 03:55:27;;;;;;;53.67;33.33;;;29.50;99.90;;;;;;5016412;28;20072;-66
2022/12/10 03:57:53;;;;;;;61.67;38.58;;;29.50;99.90;;;;;;5020467;28;20064;-66
2022/12/10 04:00:20;;;;;;;54.88;35.20;;;29.60;99.90;;;;;;5029466;28;20037;-66
2022/12/10 04:02:46;;;;;;;58.97;36.30;;;29.70;99.90;;;;;;5016081;28;20026;-64
2022/12/10 04:05:13;;;;;;;64.18;40.63;;;29.70;99.90;;;;;;5015210;28;20057;-65
2022/12/10 04:07:39;;;;;;;66.85;39.45;;;29.70;99.90;;;;;;5015672;28;20018;-66
2022/12/10 04:10:06;;;;;;;65.55;39.47;;;29.70;99.90;;;;;;5018162;28;20115;-66
2022/12/10 04:12:32;;;;;;;66.88;41.60;;;29.70;99.90;;;;;;5030318;28;20496;-66
2022/12/10 04:17:45;;;;;;;63.83;40.10;;;29.80;99.90;;;;;;5028635;28;20104;-65
2022/12/10 04:28:31;;;;;;;64.95;41.25;;;29.80;99.90;;;;;;5015384;28;20033;-68
2022/12/10 04:30:58;;;;;;;86.55;49.45;;;29.80;99.90;;;;;;5017917;28;20360;-65
2022/12/10 04:33:24;;;;;;;87.80;54.65;;;29.80;99.90;;;;;;5023027;28;20048;-67
2022/12/10 04:35:51;;;;;;;83.00;51.00;;;29.90;99.90;;;;;;5026627;28;20032;-65
2022/12/10 04:38:17;;;;;;;88.35;56.83;;;29.90;99.90;;;;;;5015220;28;20030;-68
2022/12/10 04:40:44;;;;;;;97.72;59.67;;;30.00;99.90;;;;;;5016329;28;20542;-67
2022/12/10 04:43:10;;;;;;;93.43;55.92;;;30.00;99.90;;;;;;5018237;28;20037;-66
2022/12/10 04:45:37;;;;;;;87.82;56.28;;;30.10;99.90;;;;;;5024653;28;20029;-63
2022/12/10 04:48:03;;;;;;;74.75;47.08;;;30.20;99.90;;;;;;5022593;28;20030;-65
2022/12/10 04:50:30;;;;;;;87.97;53.15;;;30.20;99.90;;;;;;5021228;28;20021;-66
2022/12/10 04:52:56;;;;;;;88.03;53.63;;;30.20;99.90;;;;;;5023625;28;20489;-70
2022/12/10 04:55:23;;;;;;;96.00;59.10;;;30.20;99.90;;;;;;5030322;28;20029;-66
2022/12/10 04:57:49;;;;;;;86.20;49.15;;;30.30;99.90;;;;;;5030526;28;20037;-68
2022/12/10 05:00:16;;;;;;;83.20;47.75;;;30.30;99.90;;;;;;5023733;28;20024;-70
2022/12/10 05:02:42;;;;;;;73.03;45.95;;;30.30;99.90;;;;;;5024881;28;20025;-68
2022/12/10 05:05:09;;;;;;;70.10;44.70;;;30.30;99.90;;;;;;5023029;28;20478;-69
2022/12/10 05:07:36;;;;;;;75.43;45.92;;;30.30;99.90;;;;;;5022912;28;20036;-69
2022/12/10 05:10:02;;;;;;;73.05;45.38;;;30.30;99.90;;;;;;5024534;28;20026;-69
2022/12/10 05:12:29;;;;;;;78.10;48.35;;;30.30;99.90;;;;;;5027647;28;20018;-70
2022/12/10 05:14:55;;;;;;;105.03;52.40;;;30.40;99.90;;;;;;5027028;28;20337;-69
2022/12/10 05:17:22;;;;;;;85.68;49.47;;;30.40;99.90;;;;;;5033605;28;20018;-70
2022/12/10 05:19:48;;;;;;;96.25;52.38;;;30.40;99.90;;;;;;5024082;28;20091;-69
2022/12/10 05:25:01;;;;;;;85.25;53.95;;;30.50;99.90;;;;;;5029972;28;20445;-70
2022/12/10 05:27:32;;;;;;;95.47;57.40;;;30.50;99.90;;;;;;5013166;28;20029;-70
2022/12/10 05:29:59;;;;;;;103.00;62.47;;;30.60;99.90;;;;;;5014684;28;20037;-71
2022/12/10 05:32:25;;;;;;;90.75;58.25;;;30.60;99.90;;;;;;5028614;28;20029;-66
2022/12/10 05:34:52;;;;;;;126.60;71.05;;;30.60;99.90;;;;;;5031855;28;20487;-67
2022/12/10 05:37:18;;;;;;;96.97;60.25;;;30.70;99.90;;;;;;5017115;28;20118;-68
2022/12/10 05:39:45;;;;;;;80.43;52.40;;;30.70;99.90;;;;;;5017684;28;20045;-65
2022/12/10 06:18:42;;;;;;;101.70;54.78;;;30.30;99.90;;;;;;5089286;28;20405;-69
2022/12/10 06:21:12;;;;;;;57.92;38.90;;;30.30;99.90;;;;;;5090664;28;20032;-70
2022/12/10 06:23:40;;;;;;;49.10;29.60;;;30.40;99.90;;;;;;5091045;28;20024;-68
2022/12/10 06:26:12;;;;;;;52.03;32.28;;;30.60;99.90;;;;;;5091107;28;20028;-69
2022/12/10 06:28:40;;;;;;;54.97;33.95;;;30.70;99.90;;;;;;5090893;28;20032;-70
2022/12/10 06:31:07;;;;;;;41.35;28.45;;;30.90;99.90;;;;;;5090100;28;20059;-68
2022/12/10 06:33:33;;;;;;;80.53;35.63;;;31.00;99.90;;;;;;5090055;28;20534;-71
2022/12/10 06:36:00;;;;;;;42.17;24.30;;;31.00;99.90;;;;;;5090070;28;20024;-70
2022/12/10 06:38:29;;;;;;;52.97;30.13;;;31.10;99.90;;;;;;5083941;28;20028;-71
2022/12/10 06:40:56;;;;;;;122.20;52.50;;;31.10;99.90;;;;;;5079195;28;20044;-69
2022/12/10 06:43:22;;;;;;;36.42;21.50;;;31.20;99.90;;;;;;5080496;28;20021;-69
2022/12/10 06:45:49;;;;;;;72.78;34.22;;;31.20;99.90;;;;;;5078357;28;20017;-70
2022/12/10 06:48:15;;;;;;;60.47;31.02;;;31.30;99.90;;;;;;5079079;28;20469;-70
2022/12/10 06:50:42;;;;;;;42.03;23.58;;;31.30;99.90;;;;;;5083220;28;20024;-71
2022/12/10 06:53:08;;;;;;;42.38;25.27;;;31.40;99.90;;;;;;5090313;28;20028;-71
2022/12/10 06:55:38;;;;;;;48.00;25.52;;;31.40;99.90;;;;;;5090070;28;20051;-73
2022/12/10 06:58:05;;;;;;;53.13;26.92;;;31.40;99.90;;;;;;5090001;28;20477;-71
2022/12/10 07:00:32;;;;;;;36.90;23.13;;;31.40;99.90;;;;;;5090370;28;20052;-71
2022/12/10 07:02:58;;;;;;;36.22;22.67;;;31.50;99.90;;;;;;5090156;28;20099;-72
2022/12/10 07:05:25;;;;;;;40.28;23.45;;;31.50;99.90;;;;;;5089910;28;20020;-72
2022/12/10 07:07:51;;;;;;;35.15;23.98;;;31.40;99.90;;;;;;5090118;28;20107;-68
2022/12/10 07:10:18;;;;;;;31.40;21.10;;;31.50;99.90;;;;;;5089860;28;20032;-71
2022/12/10 07:12:44;;;;;;;30.70;21.85;;;31.40;99.90;;;;;;5090307;28;20024;-72
2022/12/10 07:15:11;;;;;;;39.40;23.90;;;31.40;99.90;;;;;;5079939;28;20029;-70
2022/12/10 07:17:37;;;;;;;37.65;22.05;;;31.40;99.90;;;;;;5076662;28;20082;-70
2022/12/10 07:20:04;;;;;;;35.15;22.77;;;31.40;99.90;;;;;;5086034;28;20326;-70
2022/12/10 07:22:31;;;;;;;43.03;24.90;;;31.40;99.90;;;;;;5084377;28;20066;-70
2022/12/10 07:24:57;;;;;;;43.88;23.23;;;31.40;99.90;;;;;;5099905;28;20377;-70
2022/12/10 07:27:24;;;;;;;45.10;23.70;;;31.50;99.90;;;;;;5102994;28;20073;-69
2022/12/10 07:29:50;;;;;;;25.42;17.90;;;31.50;99.90;;;;;;5080293;28;20027;-69
2022/12/10 07:32:17;;;;;;;43.67;18.60;;;31.50;99.90;;;;;;5095985;28;20107;-70
2022/12/10 07:34:43;;;;;;;35.10;19.08;;;31.50;99.90;;;;;;5078014;28;20043;-70
2022/12/10 07:37:10;;;;;;;25.42;17.45;;;31.50;99.90;;;;;;5075836;28;20037;-72
2022/12/10 07:39:36;;;;;;;32.88;17.08;;;31.50;99.90;;;;;;5075804;28;20066;-72
2022/12/10 07:42:03;;;;;;;31.10;15.10;;;31.50;99.90;;;;;;5075068;28;20465;-71
2022/12/10 07:44:29;;;;;;;24.98;13.23;;;31.50;99.90;;;;;;5075656;28;20032;-67
2022/12/10 07:46:56;;;;;;;37.35;14.85;;;31.40;99.90;;;;;;5077286;28;20025;-69
2022/12/10 07:49:23;;;;;;;23.85;13.00;;;31.40;99.90;;;;;;5063543;28;20036;-66
2022/12/10 07:51:50;;;;;;;20.30;13.02;;;31.40;99.90;;;;;;5060988;28;20025;-68
2022/12/10 07:54:18;;;;;;;34.85;14.55;;;31.40;99.90;;;;;;5063204;28;20029;-67
2022/12/10 07:56:45;;;;;;;19.10;13.18;;;31.30;99.90;;;;;;5060618;28;20029;-68
2022/12/10 07:59:11;;;;;;;27.48;15.50;;;31.30;99.90;;;;;;5061326;28;20016;-69
2022/12/10 08:01:38;;;;;;;22.80;14.52;;;31.20;99.90;;;;;;5063666;28;20063;-68
2022/12/10 08:04:04;;;;;;;26.63;18.00;;;31.20;99.90;;;;;;5065608;28;20132;-68
2022/12/10 08:06:31;;;;;;;24.05;15.15;;;31.20;99.90;;;;;;5063600;28;20040;-69
2022/12/10 08:08:59;;;;;;;20.63;14.38;;;31.20;99.90;;;;;;5065330;28;20032;-70
2022/12/10 08:11:27;;;;;;;28.05;14.32;;;31.20;99.90;;;;;;5057793;28;20108;-70
2022/12/10 08:13:54;;;;;;;20.63;12.45;;;31.30;99.90;;;;;;5057753;28;20033;-68
2022/12/10 08:16:25;;;;;;;18.63;13.55;;;31.30;99.90;;;;;;5058463;28;20029;-68
2022/12/10 08:18:52;;;;;;;19.70;13.63;;;31.20;99.90;;;;;;5059054;28;20020;-66
2022/12/10 08:21:21;;;;;;;20.63;14.15;;;31.20;99.90;;;;;;5061496;28;20017;-67
2022/12/10 08:23:48;;;;;;;29.63;14.35;;;31.20;99.90;;;;;;5064603;28;20408;-67
2022/12/10 08:26:27;;;;;;;20.85;13.77;;;31.30;99.90;;;;;;5066075;28;20102;-67
2022/12/10 08:28:54;;;;;;;25.30;13.82;;;31.30;99.90;;;;;;5066185;28;20031;-67
2022/12/10 08:31:22;;;;;;;17.40;13.02;;;31.20;99.90;;;;;;5067732;28;20017;-68
2022/12/10 08:33:49;;;;;;;23.77;13.10;;;31.20;99.90;;;;;;5067959;28;20028;-67
2022/12/10 08:36:17;;;;;;;24.05;14.13;;;31.20;99.90;;;;;;5066010;28;20647;-68
2022/12/10 08:38:45;;;;;;;21.33;15.13;;;31.20;99.90;;;;;;5063932;28;20050;-68
2022/12/10 08:41:15;;;;;;;27.75;16.15;;;31.20;99.90;;;;;;5063662;28;20024;-69
2022/12/10 08:43:42;;;;;;;80.75;61.75;;;31.20;99.90;;;;;;5063550;28;20111;-68
2022/12/10 08:46:10;;;;;;;195.02;147.85;;;31.30;99.90;;;;;;5066848;28;20044;-67
2022/12/10 08:48:37;;;;;;;55.13;36.85;;;31.30;99.90;;;;;;5068810;28;20111;-69
2022/12/10 08:51:05;;;;;;;142.00;98.13;;;31.30;99.90;;;;;;5067018;28;20020;-69
2022/12/10 08:53:33;;;;;;;91.25;71.88;;;31.30;99.90;;;;;;5065481;28;20032;-68
2022/12/10 08:55:59;;;;;;;54.97;41.22;;;31.30;99.90;;;;;;5061854;28;20024;-67
2022/12/10 08:58:26;;;;;;;67.90;46.88;;;31.30;99.90;;;;;;5063113;28;20025;-67
2022/12/10 09:00:52;;;;;;;81.97;49.30;;;31.30;99.90;;;;;;5064839;28;20047;-68
2022/12/10 09:03:19;;;;;;;35.72;19.52;;;31.30;99.90;;;;;;5064373;28;20043;-69
2022/12/10 09:05:46;;;;;;;26.00;17.80;;;31.30;99.90;;;;;;5061726;28;20021;-68
2022/12/10 09:08:13;;;;;;;25.95;16.42;;;31.30;99.90;;;;;;5061448;28;20051;-66
2022/12/10 09:10:40;;;;;;;22.65;16.38;;;31.20;99.90;;;;;;5066762;28;20029;-66
2022/12/10 09:13:07;;;;;;;30.70;19.13;;;31.20;99.90;;;;;;5065390;28;20028;-65
2022/12/10 09:15:33;;;;;;;109.57;78.95;;;31.20;99.90;;;;;;5068175;28;20492;-66
2022/12/10 09:18:00;;;;;;;157.27;119.97;;;31.30;99.90;;;;;;5064259;28;20048;-68
2022/12/10 09:20:26;;;;;;;40.72;28.55;;;31.30;99.90;;;;;;5058002;28;20021;-66
2022/12/10 09:22:53;;;;;;;28.23;19.05;;;31.30;99.90;;;;;;5060062;28;20009;-66
2022/12/10 09:25:21;;;;;;;28.45;21.23;;;31.30;99.90;;;;;;5053905;28;20048;-67
2022/12/10 09:27:48;;;;;;;97.35;76.20;;;31.30;99.90;;;;;;5068916;28;20470;-67
2022/12/10 09:30:15;;;;;;;69.88;38.72;;;31.30;99.90;;;;;;5055584;28;20029;-67
2022/12/10 09:32:42;;;;;;;99.45;71.63;;;31.30;99.90;;;;;;5052954;28;20039;-68
2022/12/10 09:35:08;;;;;;;56.45;39.50;;;31.30;99.90;;;;;;5063590;28;20469;-66
2022/12/10 09:37:35;;;;;;;37.05;24.35;;;31.30;99.90;;;;;;5053457;28;20029;-66
2022/12/10 09:40:03;;;;;;;48.60;34.50;;;31.30;99.90;;;;;;5063117;28;20099;-67
2022/12/10 09:42:36;;;;;;;62.65;46.28;;;31.20;99.90;;;;;;5053784;28;20380;-67
2022/12/10 09:45:08;;;;;;;67.70;42.40;;;31.30;99.90;;;;;;5066159;28;20047;-68
2022/12/10 09:47:56;;;;;;;44.75;27.38;;;31.30;99.90;;;;;;5054973;28;20111;-68
2022/12/10 09:50:48;;;;;;;44.80;27.77;;;31.30;99.90;;;;;;5056944;28;20522;-68
2022/12/10 09:53:17;;;;;;;295.02;146.60;;;31.20;99.90;;;;;;5063009;28;20071;-68
2022/12/10 09:55:47;;;;;;;418.10;238.70;;;31.20;99.90;;;;;;5063132;28;20053;-67
2022/12/10 09:58:25;;;;;;;633.15;371.35;;;31.30;99.90;;;;;;5061143;28;20098;-68
2022/12/10 10:01:01;;;;;;;743.35;418.55;;;31.30;99.90;;;;;;5064322;28;20489;-66
2022/12/10 10:03:34;;;;;;;488.63;244.10;;;31.20;99.90;;;;;;5064716;28;20033;-66
2022/12/10 10:06:03;;;;;;;223.43;102.38;;;31.20;99.90;;;;;;5059528;28;20033;-69
2022/12/10 10:08:30;;;;;;;206.65;89.90;;;31.20;99.90;;;;;;5061785;28;20036;-68
2022/12/10 10:10:58;;;;;;;152.93;72.65;;;31.20;99.90;;;;;;5060434;28;20037;-71
2022/12/10 10:13:39;;;;;;;241.93;117.68;;;31.10;99.90;;;;;;5069583;28;20032;-67
2022/12/10 10:16:16;;;;;;;159.70;78.63;;;31.10;99.90;;;;;;5073925;28;20068;-67
2022/12/10 10:18:48;;;;;;;143.05;104.25;;;31.10;99.90;;;;;;5071750;28;20035;-68
2022/12/10 10:21:25;;;;;;;151.50;106.25;;;31.00;99.90;;;;;;5055381;28;20044;-68
2022/12/10 10:23:52;;;;;;;125.10;81.05;;;31.00;99.90;;;;;;5062267;28;20051;-69
2022/12/10 10:26:19;;;;;;;104.43;54.90;;;31.00;99.90;;;;;;5064788;28;20021;-67
2022/12/10 10:28:46;;;;;;;93.40;50.10;;;30.90;99.90;;;;;;5055531;28;20108;-68
2022/12/10 10:31:21;;;;;;;70.10;41.50;;;30.90;99.90;;;;;;5069513;28;20031;-69
2022/12/10 10:33:56;;;;;;;87.55;48.08;;;30.90;99.90;;;;;;5061922;28;20462;-67
2022/12/10 10:36:30;;;;;;;76.95;43.38;;;30.80;99.90;;;;;;5053537;28;20021;-69
2022/12/10 10:38:57;;;;;;;70.38;40.33;;;30.80;99.90;;;;;;5053216;28;20021;-68
2022/12/10 10:41:25;;;;;;;53.55;26.88;;;30.80;99.90;;;;;;5058021;28;20017;-68
2022/12/10 10:44:01;;;;;;;51.00;28.98;;;30.80;99.90;;;;;;5073441;28;20033;-71
2022/12/10 10:46:27;;;;;;;70.82;39.03;;;30.70;99.90;;;;;;5073253;28;20035;-70
2022/12/10 10:49:19;;;;;;;67.28;40.80;;;30.70;99.90;;;;;;5073156;28;20086;-68
2022/12/10 10:51:46;;;;;;;69.57;41.20;;;30.60;99.90;;;;;;5071798;28;20362;-68
2022/12/10 10:54:37;;;;;;;56.40;36.00;;;30.70;99.90;;;;;;5073093;28;20036;-68
2022/12/10 10:57:15;;;;;;;62.97;39.95;;;30.60;99.90;;;;;;5072946;28;20028;-68
2022/12/10 10:59:42;;;;;;;59.17;36.80;;;30.60;99.90;;;;;;5073424;28;20016;-68
2022/12/10 11:02:24;;;;;;;61.17;39.22;;;30.50;99.90;;;;;;5072239;28;20380;-67
2022/12/10 11:04:53;;;;;;;;;;;30.50;99.90;;;;;;5075853;28;20029;-68
2022/12/10 11:07:40;;;;;;;93.15;61.65;;;30.50;99.90;;;;;;5076645;28;19908;-68
2022/12/10 11:10:27;;;;;;;67.38;45.30;;;30.50;99.90;;;;;;5076576;28;20031;-68
2022/12/10 11:13:01;;;;;;;117.85;82.55;;;30.50;99.90;;;;;;5076687;28;20024;-68
2022/12/10 11:15:30;;;;;;;113.90;82.28;;;30.40;99.90;;;;;;5076516;28;20085;-69
2022/12/10 11:17:57;;;;;;;87.57;50.30;;;30.40;99.90;;;;;;5076714;28;20040;-68
2022/12/10 11:20:27;;;;;;;78.70;51.33;;;30.40;99.90;;;;;;5076649;28;20028;-68
2022/12/10 11:22:58;;;;;;;68.10;47.08;;;30.30;99.90;;;;;;5076492;28;20139;-69
2022/12/10 11:25:40;;;;;;;66.53;42.72;;;30.30;99.90;;;;;;5076709;28;20016;-67
2022/12/10 11:28:06;;;;;;;;;;;30.30;99.90;;;;;;5077111;28;20032;-68
2022/12/10 11:30:43;;;;;;;53.70;32.83;;;30.30;99.90;;;;;;5076650;28;19911;-69
2022/12/10 11:33:26;;;;;;;47.90;32.10;;;30.30;99.90;;;;;;5076790;28;20025;-68
2022/12/10 11:36:29;;;;;;;52.67;32.33;;;30.20;99.90;;;;;;5070182;28;20029;-68
2022/12/10 11:39:06;;;;;;;49.33;31.58;;;30.20;99.90;;;;;;5074214;28;20401;-69
2022/12/10 11:41:58;;;;;;;55.50;33.92;;;30.20;99.90;;;;;;5074412;28;20107;-69
2022/12/10 11:44:30;;;;;;;55.33;35.57;;;30.10;99.90;;;;;;5034250;28;20128;-68
2022/12/10 11:47:22;;;;;;;45.95;30.77;;;30.20;99.90;;;;;;5034184;28;20262;-68
2022/12/10 11:50:09;;;;;;;63.20;37.05;;;30.10;99.90;;;;;;5034410;28;20044;-68
2022/12/10 11:52:51;;;;;;;50.53;31.38;;;30.00;99.90;;;;;;4975119;28;20062;-68
2022/12/10 11:55:47;;;;;;;51.15;35.85;;;30.00;99.90;;;;;;4975284;28;20118;-68
2022/12/10 11:58:23;;;;;;;47.70;29.65;;;30.00;99.90;;;;;;4974428;28;20072;-67
2022/12/10 12:00:56;;;;;;;44.60;29.95;;;30.00;99.90;;;;;;4970502;28;20037;-68
2022/12/10 12:03:45;;;;;;;53.83;30.42;;;30.00;99.90;;;;;;4964379;28;20031;-68
2022/12/10 12:06:50;;;;;;;51.38;32.03;;;30.00;99.90;;;;;;4971985;28;20331;-68
2022/12/10 12:09:26;;;;;;;50.50;32.15;;;30.00;99.90;;;;;;4975036;28;20047;-67
2022/12/10 12:12:12;;;;;;;45.25;28.70;;;30.00;99.90;;;;;;4975382;28;20395;-69
2022/12/10 12:14:59;;;;;;;45.83;27.67;;;29.90;99.90;;;;;;4963853;28;20073;-68
2022/12/10 12:17:51;;;;;;;42.20;26.90;;;29.90;99.90;;;;;;4970367;28;20043;-68
2022/12/10 12:20:24;;;;;;;40.67;28.45;;;30.00;99.90;;;;;;4982222;28;20057;-68
2022/12/10 12:22:57;;;;;;;56.55;29.63;;;29.90;99.90;;;;;;5014298;28;20088;-68
2022/12/10 12:25:48;;;;;;;50.53;29.65;;;29.90;99.90;;;;;;5018671;28;20022;-69
2022/12/10 12:28:23;;;;;;;47.15;28.33;;;29.90;99.90;;;;;;4994433;28;20043;-66
2022/12/10 12:30:59;;;;;;;42.83;24.73;;;29.90;99.90;;;;;;5070169;28;20460;-69
2022/12/10 12:33:49;;;;;;;32.53;21.30;;;29.90;99.90;;;;;;5072346;28;20040;-70
2022/12/10 12:36:19;;;;;;;36.13;20.63;;;29.70;99.90;;;;;;5072042;28;20074;-68
2022/12/10 12:38:53;;;;;;;27.92;18.83;;;29.70;99.90;;;;;;5071720;28;20048;-71
2022/12/10 12:41:55;;;;;;;28.10;16.05;;;29.70;99.90;;;;;;5071214;28;20040;-68
2022/12/10 12:44:25;;;;;;;19.23;11.15;;;29.70;99.90;;;;;;4990141;28;20034;-66
2022/12/10 12:46:52;;;;;;;18.08;11.75;;;29.60;99.90;;;;;;4992665;28;20046;-67
2022/12/10 12:49:29;;;;;;;26.50;13.77;;;29.50;99.90;;;;;;4993072;28;20034;-69
2022/12/10 12:52:25;;;;;;;19.70;11.98;;;29.50;99.90;;;;;;4992950;28;20146;-70
2022/12/10 12:54:56;;;;;;;20.73;10.90;;;29.40;99.90;;;;;;4992639;28;20487;-68
2022/12/10 12:57:25;;;;;;;17.63;10.25;;;29.40;99.90;;;;;;4992699;28;20027;-68
2022/12/10 13:00:01;;;;;;;17.00;9.50;;;29.30;99.90;;;;;;4992363;28;20030;-71
2022/12/10 13:03:02;;;;;;;13.10;6.68;;;29.10;99.90;;;;;;4992666;28;20034;-67
2022/12/10 13:05:35;;;;;;;15.20;6.83;;;29.00;99.90;;;;;;4987019;28;20038;-70
2022/12/10 13:08:21;;;;;;;13.80;7.38;;;29.00;99.90;;;;;;4993500;28;20310;-71
2022/12/10 13:11:10;;;;;;;13.60;7.95;;;28.90;99.90;;;;;;4981566;28;20101;-68
2022/12/10 13:14:07;;;;;;;16.45;9.70;;;28.90;99.90;;;;;;4979565;28;20042;-69
2022/12/10 13:16:45;;;;;;;20.40;10.55;;;29.00;99.90;;;;;;4983006;28;20047;-71
2022/12/10 13:19:23;;;;;;;28.02;10.98;;;29.00;99.90;;;;;;4975733;28;20058;-68
2022/12/10 13:21:54;;;;;;;19.52;10.52;;;29.00;99.90;;;;;;4971444;28;20488;-71
2022/12/10 13:24:40;;;;;;;16.73;10.05;;;28.90;99.90;;;;;;4973702;28;20121;-71
2022/12/10 13:27:08;;;;;;;14.10;9.23;;;28.90;99.90;;;;;;4970724;28;20400;-67
2022/12/10 13:29:56;;;;;;;14.20;7.75;;;28.80;99.90;;;;;;4973485;28;20035;-69
2022/12/10 13:32:42;;;;;;;10.13;6.65;;;28.80;99.90;;;;;;4972789;28;20046;-69
2022/12/10 13:35:14;;;;;;;12.07;7.68;;;28.80;99.90;;;;;;4972410;28;20649;-69
2022/12/10 13:37:49;;;;;;;11.60;7.60;;;28.70;99.90;;;;;;4973183;28;20090;-69